Time;durP1;ratioP1;P1;durP2;ratioP2;P2;SDS_P1;SDS_P2;PMS_P1;PMS_P2;Temp;Humidity;BMP_temperature;BMP_pressure;BME280_temperature;BME280_humidity;BME280_pressure;Samples;Min_cycle;Max_cycle;Signal;HPM_P1;HPM_P2
2023/01/05 00:00:25;;;;;;;;;;;;;;;7.84;80.43;96022.69;5076707;28;1914;-48
2023/01/05 00:02:51;;;;;;;;;;;;;;;7.88;80.08;96019.66;5077098;28;1026;-48
2023/01/05 00:05:17;;;;;;;;;;;;;;;7.81;80.39;96029.94;5076818;28;1215;-48
2023/01/05 00:07:43;;;;;;;;;;;;;;;7.80;80.62;96024.75;5076747;28;1087;-48
2023/01/05 00:22:29;;;;;;;;;;;;;;;7.73;80.47;96032.38;5076677;28;1085;-48
2023/01/05 00:23:57;;;;;;;;;;;;;;;7.41;82.15;96026.91;5076665;28;1431;-48
2023/01/05 00:26:23;;;;;;;;;;;;;;;7.40;82.07;96027.91;5076521;28;1048;-48
2023/01/05 00:28:49;;;;;;;;;;;;;;;7.38;82.32;96025.34;5076378;28;1012;-48
2023/01/05 00:31:15;;;;;;;;;;;;;;;7.38;82.16;96028.03;5076433;28;1011;-48
2023/01/05 00:33:41;;;;;;;;;;;;;;;7.18;83.01;96029.56;5076275;28;1115;-48
2023/01/05 00:36:10;;;;;;;;;;;;;;;7.19;82.97;96030.41;5076172;28;1021;-48
2023/01/05 00:38:36;;;;;;;;;;;;;;;7.20;83.16;96032.94;5076353;28;1065;-48
2023/01/05 00:41:02;;;;;;;;;;;;;;;7.20;82.74;96032.94;5076079;28;1987;-48
2023/01/05 00:43:28;;;;;;;;;;;;;;;7.21;82.91;96031.16;5075967;28;1012;-48
2023/01/05 00:45:54;;;;;;;;;;;;;;;7.20;82.93;96032.94;5076202;28;992;-48
2023/01/05 00:48:20;;;;;;;;;;;;;;;7.25;82.60;96035.25;5076014;28;1019;-48
2023/01/05 00:50:48;;;;;;;;;;;;;;;7.21;82.91;96028.50;5075985;28;1012;-48
2023/01/05 00:53:14;;;;;;;;;;;;;;;7.22;83.12;96038.16;5076165;28;1045;-48
2023/01/05 00:55:40;;;;;;;;;;;;;;;7.26;82.55;96028.13;5075834;28;1075;-48
2023/01/05 00:58:06;;;;;;;;;;;;;;;7.29;82.18;96022.56;5075857;28;1116;-48
2023/01/05 01:00:32;;;;;;;;;;;;;;;7.32;82.21;96009.00;5057489;28;1914;-48
2023/01/05 01:02:58;;;;;;;;;;;;;;;7.33;82.18;96014.22;5075838;28;1083;-49
2023/01/05 01:05:24;;;;;;;;;;;;;;;7.33;82.43;96016.03;5075578;28;1075;-49
2023/01/05 01:07:51;;;;;;;;;;;;;;;7.35;81.90;96006.13;5075953;28;970;-49
2023/01/05 01:10:17;;;;;;;;;;;;;;;7.40;81.94;96001.31;5057633;28;1110;-49
2023/01/05 01:12:43;;;;;;;;;;;;;;;7.37;81.95;96001.53;5075771;28;1000;-48
2023/01/05 01:15:10;;;;;;;;;;;;;;;7.25;82.53;96011.31;5075618;28;966;-49
2023/01/05 01:17:36;;;;;;;;;;;;;;;7.29;82.50;95999.47;5057666;28;1054;-48
2023/01/05 01:20:02;;;;;;;;;;;;;;;7.35;82.26;95998.16;5075392;28;1910;-49
2023/01/05 01:22:28;;;;;;;;;;;;;;;7.38;81.94;96004.06;5075239;28;1048;-49
2023/01/05 01:24:54;;;;;;;;;;;;;;;7.16;82.52;95991.59;5075369;28;1464;-49
2023/01/05 01:27:20;;;;;;;;;;;;;;;7.12;82.67;95992.81;5075418;28;1068;-49
2023/01/05 01:29:46;;;;;;;;;;;;;;;7.12;83.04;95991.97;5075399;28;954;-48
2023/01/05 01:32:12;;;;;;;;;;;;;;;7.10;83.44;95988.59;5075353;28;1261;-48
2023/01/05 01:34:38;;;;;;;;;;;;;;;7.12;83.21;95994.63;5075092;28;1036;-48
2023/01/05 01:37:04;;;;;;;;;;;;;;;6.94;83.34;95995.06;5075391;28;965;-48
2023/01/05 01:39:30;;;;;;;;;;;;;;;6.92;83.97;95981.03;5075199;28;1909;-48
2023/01/05 01:41:56;;;;;;;;;;;;;;;7.01;83.54;95984.81;5075220;28;953;-49
2023/01/05 01:44:41;;;;;;;;;;;;;;;6.99;83.71;95982.25;5075037;28;1029;-48
2023/01/05 01:47:09;;;;;;;;;;;;;;;6.96;83.98;95976.34;5074907;28;1008;-49
2023/01/05 01:49:35;;;;;;;;;;;;;;;6.79;84.09;95977.63;5075097;28;964;-49
2023/01/05 01:52:01;;;;;;;;;;;;;;;6.83;84.30;95977.28;5074814;28;1084;-49
2023/01/05 01:54:27;;;;;;;;;;;;;;;6.99;83.42;95976.94;5074639;28;1024;-48
2023/01/05 01:56:54;;;;;;;;;;;;;;;6.96;83.70;95976.34;5074902;28;1008;-49
2023/01/05 01:59:21;;;;;;;;;;;;;;;6.87;84.42;95977.03;5074668;28;1913;-48
2023/01/05 02:01:49;;;;;;;;;;;;;;;6.72;84.45;95971.94;5074737;28;960;-48
2023/01/05 02:04:15;;;;;;;;;;;;;;;6.65;85.20;95968.06;5074671;28;1016;-48
2023/01/05 02:06:41;;;;;;;;;;;;;;;6.78;85.00;95966.16;5074735;28;1031;-48
2023/01/05 02:09:07;;;;;;;;;;;;;;;6.95;84.36;95961.38;5074930;28;1085;-49
2023/01/05 02:11:39;;;;;;;;;;;;;;;7.00;84.25;95956.50;5094150;28;1044;-48
2023/01/05 02:14:23;;;;;;;;;;;;;;;7.06;84.30;95955.19;5094635;28;994;-49
2023/01/05 02:17:02;;;;;;;;;;;;;;;7.05;83.64;95946.38;5094538;28;1107;-48
2023/01/05 02:19:31;;;;;;;;;;;;;;;6.99;83.48;95942.38;5094352;28;2001;-49
2023/01/05 02:22:15;;;;;;;;;;;;;;;6.93;83.97;95932.22;5094528;28;1230;-48
2023/01/05 02:24:44;;;;;;;;;;;;;;;7.01;83.69;95931.63;5093984;28;1540;-48
2023/01/05 02:27:39;;;;;;;;;;;;;;;6.97;84.00;95933.69;5094647;28;1011;-48
2023/01/05 02:30:24;;;;;;;;;;;;;;;6.96;84.27;95923.16;5076963;28;1688;-48
2023/01/05 02:33:02;;;;;;;;;;;;;;;6.99;84.16;95920.28;5094374;28;1040;-48
2023/01/05 02:35:49;;;;;;;;;;;;;;;6.95;84.23;95922.31;5094220;28;974;-49
2023/01/05 02:38:15;;;;;;;;;;;;;;;6.84;84.27;95923.16;5094286;28;1024;-49
2023/01/05 02:40:43;;;;;;;;;;;;;;;6.87;84.24;95915.91;5094023;28;1886;-49
2023/01/05 02:43:11;;;;;;;;;;;;;;;6.88;84.64;95925.56;5094247;28;984;-49
2023/01/05 02:45:37;;;;;;;;;;;;;;;6.76;85.11;95919.41;5093959;28;976;-49
2023/01/05 02:48:04;;;;;;;;;;;;;;;6.80;84.88;95916.38;5094292;28;1003;-49
2023/01/05 02:50:50;;;;;;;;;;;;;;;6.80;84.60;95918.19;5093884;28;934;-49
2023/01/05 02:53:16;;;;;;;;;;;;;;;6.80;84.46;95916.38;5093720;28;1763;-49
2023/01/05 02:55:42;;;;;;;;;;;;;;;6.67;85.04;95914.81;5093982;28;949;-49
2023/01/05 02:58:14;;;;;;;;;;;;;;;6.71;84.74;95918.91;5093866;28;1012;-49
2023/01/05 03:00:43;;;;;;;;;;;;;;;6.75;84.92;95923.84;5094020;28;1909;-48
2023/01/05 03:03:14;;;;;;;;;;;;;;;6.70;84.86;95911.91;5093884;28;1005;-48
2023/01/05 03:05:46;;;;;;;;;;;;;;;6.69;85.01;95911.06;5075963;28;1049;-48
2023/01/05 03:08:20;;;;;;;;;;;;;;;6.86;84.09;95912.41;5093847;28;992;-49
2023/01/05 03:14:24;;;;;;;;;;;;;;;7.01;83.55;95911.19;5053599;28;958;-48
2023/01/05 03:16:53;;;;;;;;;;;;;;;6.88;84.06;95912.28;5053553;28;1048;-48
2023/01/05 03:19:35;;;;;;;;;;;;;;;6.76;84.60;95911.44;5053214;28;1987;-49
2023/01/05 03:35:56;;;;;;;;;;;;;;;6.86;84.21;95892.94;5053217;28;974;-48
2023/01/05 03:38:30;;;;;;;;;;;;;;;6.93;83.77;95879.06;5053334;28;999;-49
2023/01/05 03:40:58;;;;;;;;;;;;;;;6.98;83.55;95876.03;5053313;28;1933;-49
2023/01/05 03:43:25;;;;;;;;;;;;;;;7.03;83.54;95876.50;5053221;28;996;-48
2023/01/05 03:45:54;;;;;;;;;;;;;;;7.10;83.04;95860.94;5053113;28;1055;-48
2023/01/05 03:48:21;;;;;;;;;;;;;;;7.15;82.61;95854.28;5052983;28;1100;-48
2023/01/05 03:50:47;;;;;;;;;;;;;;;7.12;82.59;95857.19;5053081;28;1080;-49
2023/01/05 03:53:13;;;;;;;;;;;;;;;7.06;82.86;95856.81;5053281;28;1038;-49
2023/01/05 03:55:39;;;;;;;;;;;;;;;6.99;83.46;95851.16;5053097;28;1066;-48
2023/01/05 03:58:05;;;;;;;;;;;;;;;6.98;83.81;95857.41;5052987;28;1024;-48
2023/01/05 04:00:32;;;;;;;;;;;;;;;6.98;83.87;95858.28;5052832;28;1910;-49
2023/01/05 04:02:58;;;;;;;;;;;;;;;7.00;83.77;95855.47;5052947;28;976;-49
2023/01/05 04:05:24;;;;;;;;;;;;;;;6.94;84.28;95855.97;5053121;28;1011;-48
2023/01/05 04:07:50;;;;;;;;;;;;;;;6.84;84.91;95862.00;5053087;28;1240;-48
2023/01/05 04:10:16;;;;;;;;;;;;;;;6.84;84.84;95861.16;5052941;28;991;-48
2023/01/05 04:12:45;;;;;;;;;;;;;;;6.88;84.31;95856.47;5070455;28;1297;-49
2023/01/05 04:15:11;;;;;;;;;;;;;;;6.93;84.10;95860.44;5093078;28;1028;-48
2023/01/05 04:17:37;;;;;;;;;;;;;;;6.95;84.20;95866.50;5092947;28;1012;-49
2023/01/05 04:20:04;;;;;;;;;;;;;;;6.96;84.49;95862.00;5093150;28;1988;-49
2023/01/05 04:22:31;;;;;;;;;;;;;;;6.94;84.71;95855.97;5093007;28;1000;-48
2023/01/05 04:24:57;;;;;;;;;;;;;;;6.77;84.90;95859.97;5092581;28;1946;-49
2023/01/05 04:27:23;;;;;;;;;;;;;;;6.52;85.70;95853.91;5093030;28;1047;-48
2023/01/05 04:29:49;;;;;;;;;;;;;;;6.50;85.66;95849.69;5092972;28;1101;-48
2023/01/05 04:32:15;;;;;;;;;;;;;;;6.59;85.43;95856.94;5092857;28;1041;-49
2023/01/05 04:34:41;;;;;;;;;;;;;;;6.61;85.38;95847.03;5094334;28;1031;-49
2023/01/05 04:37:07;;;;;;;;;;;;;;;6.70;85.15;95846.31;5096604;28;942;-48
2023/01/05 04:39:33;;;;;;;;;;;;;;;6.80;84.92;95841.13;5096618;28;1987;-48
2023/01/05 04:41:59;;;;;;;;;;;;;;;6.86;84.85;95830.00;5096439;28;1038;-49
2023/01/05 04:44:25;;;;;;;;;;;;;;;6.79;84.94;95837.63;5096283;28;1012;-49
2023/01/05 04:46:52;;;;;;;;;;;;;;;6.70;84.81;95811.78;5096354;28;1036;-49
2023/01/05 04:49:18;;;;;;;;;;;;;;;6.79;84.80;95837.63;5096274;28;1096;-48
2023/01/05 04:51:44;;;;;;;;;;;;;;;6.81;85.01;95827.72;5096441;28;1040;-48
2023/01/05 04:54:10;;;;;;;;;;;;;;;6.79;84.92;95826.13;5096419;28;972;-49
2023/01/05 04:56:36;;;;;;;;;;;;;;;6.80;84.96;95833.97;5096127;28;810;-49
2023/01/05 04:59:02;;;;;;;;;;;;;;;6.76;85.35;95837.84;5096172;28;1095;-49
2023/01/05 05:01:28;;;;;;;;;;;;;;;6.78;85.20;95841.22;5095944;28;1910;-49
2023/01/05 05:03:54;;;;;;;;;;;;;;;6.70;85.14;95835.69;5096080;28;1118;-48
2023/01/05 05:06:20;;;;;;;;;;;;;;;6.75;85.42;95848.59;5095906;28;1024;-49
2023/01/05 05:08:46;;;;;;;;;;;;;;;6.79;85.06;95845.59;5095953;28;1052;-49
2023/01/05 05:11:12;;;;;;;;;;;;;;;6.83;84.94;95854.19;5095977;28;1036;-49
2023/01/05 05:13:38;;;;;;;;;;;;;;;6.80;85.07;95849.09;5095670;28;1224;-48
2023/01/05 05:16:04;;;;;;;;;;;;;;;6.81;84.85;95848.09;5095918;28;1007;-48
2023/01/05 05:18:30;;;;;;;;;;;;;;;6.89;84.37;95852.84;5095730;28;1217;-49
2023/01/05 05:20:56;;;;;;;;;;;;;;;6.89;84.46;95851.03;5095639;28;1911;-49
2023/01/05 05:23:22;;;;;;;;;;;;;;;6.90;84.03;95865.16;5077439;28;1521;-48
2023/01/05 05:25:51;;;;;;;;;;;;;;;6.82;84.38;95860.44;5095694;28;1107;-48
2023/01/05 05:28:18;;;;;;;;;;;;;;;6.83;84.32;95860.34;5077818;28;959;-49
2023/01/05 05:30:47;;;;;;;;;;;;;;;6.84;84.78;95869.97;5095608;28;1863;-48
2023/01/05 05:33:13;;;;;;;;;;;;;;;6.87;84.51;95870.69;5095470;28;1003;-49
2023/01/05 05:35:39;;;;;;;;;;;;;;;6.93;84.25;95871.09;5095569;28;1164;-48
2023/01/05 05:38:05;;;;;;;;;;;;;;;6.87;84.63;95868.03;5095600;28;1012;-49
2023/01/05 05:40:31;;;;;;;;;;;;;;;6.83;84.81;95862.16;5095242;28;1906;-49
2023/01/05 05:42:57;;;;;;;;;;;;;;;6.75;85.29;95862.72;5095437;28;1028;-49
2023/01/05 05:45:23;;;;;;;;;;;;;;;6.73;85.27;95869.13;5094716;28;972;-48
2023/01/05 05:47:49;;;;;;;;;;;;;;;6.68;85.61;95858.88;5095186;28;1020;-49
2023/01/05 05:50:15;;;;;;;;;;;;;;;6.68;85.43;95850.91;5095411;28;976;-49
2023/01/05 05:52:41;;;;;;;;;;;;;;;6.73;85.48;95854.03;5094999;28;1020;-49
2023/01/05 05:55:07;;;;;;;;;;;;;;;6.67;85.61;95854.50;5095040;28;1052;-49
2023/01/05 05:57:34;;;;;;;;;;;;;;;6.81;85.22;95856.09;5095068;28;1061;-48
2023/01/05 06:00:00;;;;;;;;;;;;;;;6.91;84.66;95849.09;5094954;28;1991;-48
2023/01/05 06:02:26;;;;;;;;;;;;;;;6.90;84.84;95846.56;5095137;28;1036;-48
2023/01/05 06:04:52;;;;;;;;;;;;;;;6.88;84.71;95849.31;5095035;28;1018;-49
2023/01/05 06:07:18;;;;;;;;;;;;;;;6.60;85.31;95837.34;5094993;28;972;-49
2023/01/05 06:09:44;;;;;;;;;;;;;;;6.42;85.97;95837.81;5077021;28;1056;-49
2023/01/05 06:12:10;;;;;;;;;;;;;;;6.51;86.13;95830.13;5094736;28;1254;-49
2023/01/05 06:14:36;;;;;;;;;;;;;;;6.62;85.99;95838.09;5094667;28;1009;-49
2023/01/05 06:17:02;;;;;;;;;;;;;;;6.63;85.79;95837.13;5094685;28;1012;-48
2023/01/05 06:19:28;;;;;;;;;;;;;;;6.72;85.64;95835.56;5094715;28;1987;-48
2023/01/05 06:21:54;;;;;;;;;;;;;;;6.55;86.37;95835.06;5094792;28;1057;-49
2023/01/05 06:24:20;;;;;;;;;;;;;;;6.47;86.39;95831.31;5094032;28;1462;-48
2023/01/05 06:26:47;;;;;;;;;;;;;;;6.54;86.58;95840.50;5076538;28;1091;-48
2023/01/05 06:29:13;;;;;;;;;;;;;;;6.64;85.78;95836.19;5076424;28;1099;-49
2023/01/05 06:31:39;;;;;;;;;;;;;;;6.66;85.07;95834.25;5094308;28;1040;-49
2023/01/05 06:34:05;;;;;;;;;;;;;;;6.70;84.83;95826.88;5094351;28;1157;-49
2023/01/05 06:36:31;;;;;;;;;;;;;;;6.79;84.71;95836.75;5094409;28;968;-48
2023/01/05 06:38:57;;;;;;;;;;;;;;;6.82;84.43;95826.72;5094439;28;1020;-48
2023/01/05 06:41:23;;;;;;;;;;;;;;;6.88;84.05;95824.56;5094188;28;1979;-49
2023/01/05 06:43:49;;;;;;;;;;;;;;;6.77;84.57;95818.28;5094264;28;932;-48
2023/01/05 06:46:15;;;;;;;;;;;;;;;6.76;84.21;95813.94;5094125;28;950;-49
2023/01/05 06:48:41;;;;;;;;;;;;;;;6.80;84.08;95812.72;5094275;28;1028;-48
2023/01/05 06:51:07;;;;;;;;;;;;;;;6.82;83.89;95815.25;5094058;28;1032;-49
2023/01/05 06:53:33;;;;;;;;;;;;;;;6.88;83.80;95805.94;5093990;28;1036;-49
2023/01/05 06:55:59;;;;;;;;;;;;;;;6.97;83.09;95814.03;5094145;28;1262;-49
2023/01/05 06:58:25;;;;;;;;;;;;;;;7.00;82.62;95815.59;5093739;28;1087;-48
2023/01/05 07:00:53;;;;;;;;;;;;;;;7.00;82.23;95818.25;5093740;28;1910;-48
2023/01/05 07:03:19;;;;;;;;;;;;;;;7.08;82.06;95829.13;5093790;28;1036;-50
2023/01/05 07:05:45;;;;;;;;;;;;;;;6.99;82.30;95825.38;5093807;28;1099;-49
2023/01/05 07:08:11;;;;;;;;;;;;;;;7.02;81.79;95822.50;5093804;28;1020;-48
2023/01/05 07:10:37;;;;;;;;;;;;;;;7.01;81.85;95828.78;5093874;28;953;-49
2023/01/05 07:13:03;;;;;;;;;;;;;;;6.87;82.43;95828.16;5093511;28;1113;-49
2023/01/05 07:15:29;;;;;;;;;;;;;;;6.81;82.38;95825.06;5093602;28;976;-49
2023/01/05 07:17:55;;;;;;;;;;;;;;;6.92;82.49;95826.00;5093881;28;1030;-49
2023/01/05 07:20:21;;;;;;;;;;;;;;;11.19;66.74;95832.19;5093647;28;1988;-48
2023/01/05 07:22:47;;;;;;;;;;;;;;;15.07;51.72;95834.91;5075834;28;988;-49
2023/01/05 07:25:13;;;;;;;;;;;;;;;17.15;45.70;95847.59;5093244;28;1120;-49
2023/01/05 07:27:39;;;;;;;;;;;;;;;18.13;42.89;95850.97;5093553;28;1044;-47
2023/01/05 07:30:06;;;;;;;;;;;;;;;18.70;41.26;95849.25;5093403;28;1032;-47
2023/01/05 07:32:32;;;;;;;;;;;;;;;19.12;40.04;95841.25;5093642;28;1048;-48
2023/01/05 07:34:58;;;;;;;;;;;;;;;19.02;40.51;95847.03;5093710;28;956;-48
2023/01/05 07:37:24;;;;;;;;;;;;;;;19.77;38.65;95854.59;5093562;28;1023;-48
2023/01/05 07:39:50;;;;;;;;;;;;;;;20.00;37.88;95854.31;5093335;28;1906;-48
2023/01/05 07:42:16;;;;;;;;;;;;;;;20.29;38.05;95847.72;5093459;28;1836;-48
2023/01/05 07:44:42;;;;;;;;;;;;;;;19.49;38.77;95844.66;5093299;28;983;-48
2023/01/05 07:47:08;;;;;;;;;;;;;;;17.72;42.10;95827.16;5093334;28;1008;-48
2023/01/05 07:49:34;;;;;;;;;;;;;;;15.54;46.68;95809.81;5093132;28;1481;-48
2023/01/05 07:52:00;;;;;;;;;;;;;;;14.16;51.30;95791.91;5093324;28;1091;-47
2023/01/05 07:54:26;;;;;;;;;;;;;;;12.70;57.07;95783.19;5092523;28;1033;-47
2023/01/05 07:56:52;;;;;;;;;;;;;;;11.60;59.38;95777.25;5093265;28;1024;-47
2023/01/05 07:59:19;;;;;;;;;;;;;;;10.58;63.40;95772.84;5093055;28;1996;-47
2023/01/05 08:01:45;;;;;;;;;;;;;;;10.07;65.74;95774.06;5093482;28;960;-47
2023/01/05 08:04:11;;;;;;;;;;;;;;;9.79;68.16;95779.31;5093407;28;1131;-47
2023/01/05 08:06:37;;;;;;;;;;;;;;;9.62;68.63;95777.31;5093301;28;1034;-47
2023/01/05 08:10:27;;;;;;;;;;;;;;;9.67;69.20;95772.41;5093767;28;980;-46
2023/01/05 08:11:49;;;;;;;;;;;;;;;9.70;69.46;95772.16;5096705;28;1263;-47
2023/01/05 08:14:15;;;;;;;;;;;;;;;9.67;69.97;95770.56;5097020;28;1012;-47
2023/01/05 08:16:41;;;;;;;;;;;;;;;9.65;70.65;95763.69;5096917;28;1079;-47
2023/01/05 08:19:08;;;;;;;;;;;;;;;9.70;70.97;95767.63;5097150;28;968;-47
2023/01/05 08:21:34;;;;;;;;;;;;;;;9.81;70.49;95765.78;5096862;28;1956;-47
2023/01/05 08:24:01;;;;;;;;;;;;;;;9.64;71.90;95759.38;5096456;28;1175;-47
2023/01/05 08:26:27;;;;;;;;;;;;;;;9.68;71.44;95771.44;5096638;28;1015;-47
2023/01/05 08:28:53;;;;;;;;;;;;;;;9.92;70.04;95774.53;5096948;28;1195;-47
2023/01/05 08:31:23;;;;;;;;;;;;;;;10.10;69.39;95779.16;5096814;28;972;-47
2023/01/05 08:33:49;;;;;;;;;;;;;;;9.87;70.83;95773.28;5096898;28;1036;-47
2023/01/05 08:36:18;;;;;;;;;;;;;;;9.91;70.59;95770.16;5096585;28;1004;-47
2023/01/05 08:38:48;;;;;;;;;;;;;;;10.01;69.87;95762.13;5096555;28;993;-47
2023/01/05 08:41:15;;;;;;;;;;;;;;;10.15;69.87;95764.38;5096318;28;1989;-47
2023/01/05 08:43:41;;;;;;;;;;;;;;;10.31;69.45;95766.47;5096373;28;1075;-47
2023/01/05 08:46:07;;;;;;;;;;;;;;;10.29;69.64;95764.91;5096376;28;1068;-47
2023/01/05 08:48:33;;;;;;;;;;;;;;;10.35;69.37;95764.34;5096411;28;1065;-47
2023/01/05 08:51:02;;;;;;;;;;;;;;;10.38;68.30;95763.22;5096302;28;1110;-47
2023/01/05 08:53:28;;;;;;;;;;;;;;;10.47;68.67;95759.66;5096113;28;1096;-47
2023/01/05 08:55:54;;;;;;;;;;;;;;;10.64;68.01;95756.25;5096187;28;974;-47
2023/01/05 08:58:20;;;;;;;;;;;;;;;10.86;66.63;95744.31;5096232;28;1045;-47
2023/01/05 09:00:46;;;;;;;;;;;;;;;10.88;66.53;95742.31;5096209;28;2351;-47
2023/01/05 09:03:12;;;;;;;;;;;;;;;10.87;66.23;95734.44;5096006;28;1000;-47
2023/01/05 09:05:38;;;;;;;;;;;;;;;11.22;65.90;95735.53;5111559;28;1100;-47
2023/01/05 09:08:04;;;;;;;;;;;;;;;11.54;64.41;95735.03;5095968;28;1033;-47
2023/01/05 09:10:30;;;;;;;;;;;;;;;11.80;64.22;95735.09;5095717;28;938;-47
2023/01/05 09:12:56;;;;;;;;;;;;;;;11.93;63.84;95725.84;5095872;28;1072;-47
2023/01/05 09:15:23;;;;;;;;;;;;;;;11.93;63.57;95720.47;5095784;28;1083;-47
2023/01/05 09:17:48;;;;;;;;;;;;;;;12.09;62.59;95712.56;5095926;28;1000;-47
2023/01/05 09:20:15;;;;;;;;;;;;;;;12.40;62.05;95718.28;5094948;28;1910;-47
2023/01/05 09:22:41;;;;;;;;;;;;;;;12.42;62.14;95708.25;5094948;28;1096;-47
2023/01/05 09:25:07;;;;;;;;;;;;;;;12.35;61.70;95709.03;5110702;28;1237;-47
2023/01/05 09:27:33;;;;;;;;;;;;;;;12.69;60.21;95711.72;5095482;28;1020;-47
2023/01/05 09:29:59;;;;;;;;;;;;;;;13.06;58.45;95707.88;5095753;28;1080;-47
2023/01/05 09:32:25;;;;;;;;;;;;;;;13.31;58.41;95703.44;5095415;28;1138;-47
2023/01/05 09:34:51;;;;;;;;;;;;;;;13.52;57.40;95702.13;5095597;28;1119;-47
2023/01/05 09:37:17;;;;;;;;;;;;;;;13.65;56.27;95691.75;5095604;28;1036;-47
2023/01/05 09:39:43;;;;;;;;;;;;;;;13.73;56.71;95678.28;5095293;28;1902;-47
2023/01/05 09:42:16;;;;;;;;;;;;;;;13.79;54.99;95680.34;5095624;28;962;-47
2023/01/05 09:44:44;;;;;;;;;;;;;;;13.99;53.59;95661.16;5095339;28;946;-47
2023/01/05 09:47:25;;;;;;;;;;;;;;;14.21;53.90;95652.38;5095382;28;974;-47
2023/01/05 09:49:52;;;;;;;;;;;;;;;14.56;51.99;95650.25;5095200;28;1012;-47
2023/01/05 09:52:20;;;;;;;;;;;;;;;14.42;51.26;95648.31;5094947;28;1003;-47
2023/01/05 09:54:47;;;;;;;;;;;;;;;14.35;51.23;95639.25;5095292;28;1040;-47
2023/01/05 09:57:25;;;;;;;;;;;;;;;14.13;52.38;95630.03;5095000;28;2040;-47
2023/01/05 09:59:53;;;;;;;;;;;;;;;14.05;51.07;95629.03;5095038;28;1902;-47
2023/01/05 10:02:29;;;;;;;;;;;;;;;14.35;51.71;95623.09;5094915;28;1041;-47
2023/01/05 10:04:57;;;;;;;;;;;;;;;14.24;50.91;95617.06;5094885;28;1020;-47
2023/01/05 10:07:43;;;;;;;;;;;;;;;14.13;50.72;95608.53;5094717;28;1004;-47
2023/01/05 10:10:24;;;;;;;;;;;;;;;14.02;50.83;95596.31;5094717;28;1083;-47
2023/01/05 10:13:04;;;;;;;;;;;;;;;14.06;51.56;95593.09;5094548;28;1353;-47
2023/01/05 10:15:42;;;;;;;;;;;;;;;14.27;51.12;95593.56;5094677;28;1032;-47
2023/01/05 10:18:10;;;;;;;;;;;;;;;14.23;50.13;95583.13;5094668;28;1989;-47
2023/01/05 10:20:44;;;;;;;;;;;;;;;14.23;50.48;95576.91;5094435;28;1909;-47
2023/01/05 10:23:29;;;;;;;;;;;;;;;14.38;50.51;95577.88;5092935;28;1225;-47
2023/01/05 10:26:18;;;;;;;;;;;;;;;14.32;50.20;95577.72;5075803;28;1012;-47
2023/01/05 10:28:52;;;;;;;;;;;;;;;14.62;50.65;95584.19;5082988;28;1167;-47
2023/01/05 10:31:18;;;;;;;;;;;;;;;14.64;50.18;95574.06;5093580;28;1014;-47
2023/01/05 10:34:11;;;;;;;;;;;;;;;14.70;49.42;95570.69;5093145;28;1028;-49
2023/01/05 10:36:46;;;;;;;;;;;;;;;14.56;49.85;95569.53;5063239;28;1388;-49
2023/01/05 10:39:41;;;;;;;;;;;;;;;14.41;50.38;95576.66;5094430;28;982;-49
2023/01/05 10:42:12;;;;;;;;;;;;;;;14.83;50.19;95565.56;5076969;28;1337;-49
2023/01/05 10:44:52;;;;;;;;;;;;;;;14.79;49.23;95568.78;5075815;28;1119;-49
2023/01/05 10:47:19;;;;;;;;;;;;;;;14.39;50.03;95560.69;5076371;28;962;-49
2023/01/05 10:49:46;;;;;;;;;;;;;;;14.24;50.31;95557.06;5094268;28;1212;-49
2023/01/05 10:52:17;;;;;;;;;;;;;;;14.21;49.72;95554.75;5094172;28;1029;-48
2023/01/05 10:54:46;;;;;;;;;;;;;;;14.40;49.79;95538.19;5094061;28;1025;-49
2023/01/05 10:57:24;;;;;;;;;;;;;;;14.66;49.65;95538.91;5093996;28;956;-49
2023/01/05 10:59:57;;;;;;;;;;;;;;;14.72;48.97;95539.06;5094087;28;1988;-49
2023/01/05 11:02:25;;;;;;;;;;;;;;;14.92;48.75;95525.97;5093845;28;1157;-49
2023/01/05 11:04:52;;;;;;;;;;;;;;;14.89;48.21;95526.34;5094027;28;1053;-49
2023/01/05 11:07:18;;;;;;;;;;;;;;;14.71;48.93;95520.41;5093807;28;1056;-49
2023/01/05 11:09:46;;;;;;;;;;;;;;;14.70;48.79;95524.09;5093759;28;1032;-49
2023/01/05 11:12:23;;;;;;;;;;;;;;;14.78;48.78;95513.28;5093830;28;1117;-49
2023/01/05 11:14:53;;;;;;;;;;;;;;;14.57;48.75;95511.19;5093872;28;1025;-49
2023/01/05 11:17:21;;;;;;;;;;;;;;;14.29;49.55;95502.78;5093591;28;1146;-49
2023/01/05 11:19:51;;;;;;;;;;;;;;;14.21;49.21;95499.09;5093637;28;1984;-49
2023/01/05 11:22:27;;;;;;;;;;;;;;;14.16;49.68;95497.94;5093607;28;1079;-49
2023/01/05 11:24:53;;;;;;;;;;;;;;;13.94;50.28;95488.78;5093164;28;1448;-48
2023/01/05 11:27:19;;;;;;;;;;;;;;;13.92;50.72;95478.19;5093748;28;1267;-49
2023/01/05 11:30:05;;;;;;;;;;;;;;;13.92;49.57;95470.13;5093563;28;1032;-48
2023/01/05 11:32:32;;;;;;;;;;;;;;;14.21;49.92;95472.22;5093256;28;1184;-49
2023/01/05 11:34:59;;;;;;;;;;;;;;;14.34;49.26;95474.34;5093784;28;981;-49
2023/01/05 11:37:29;;;;;;;;;;;;;;;14.06;50.07;95463.22;5093408;28;1103;-49
2023/01/05 11:40:00;;;;;;;;;;;;;;;14.09;49.53;95457.47;5093529;28;1898;-49
2023/01/05 11:42:26;;;;;;;;;;;;;;;13.98;49.16;95468.59;5093402;28;1041;-49
2023/01/05 11:45:11;;;;;;;;;;;;;;;13.91;49.61;95457.72;5095464;28;1040;-49
2023/01/05 11:47:44;;;;;;;;;;;;;;;13.81;49.42;95452.56;5097539;28;1016;-49
2023/01/05 11:50:15;;;;;;;;;;;;;;;13.76;50.10;95449.53;5097590;28;1079;-49
2023/01/05 11:52:41;;;;;;;;;;;;;;;13.95;49.20;95456.34;5097439;28;1551;-49
2023/01/05 11:55:20;;;;;;;;;;;;;;;13.73;49.78;95452.56;5097594;28;1000;-49
2023/01/05 11:57:47;;;;;;;;;;;;;;;13.62;50.62;95451.09;5097363;28;957;-49
2023/01/05 12:00:21;;;;;;;;;;;;;;;13.70;50.01;95449.38;5097565;28;1905;-48
2023/01/05 12:02:47;;;;;;;;;;;;;;;13.72;50.67;95455.44;5097287;28;1850;-49
2023/01/05 12:05:17;;;;;;;;;;;;;;;13.77;50.85;95448.53;5097267;28;1020;-49
2023/01/05 12:07:48;;;;;;;;;;;;;;;14.05;50.34;95451.59;5097383;28;1213;-49
2023/01/05 12:10:24;;;;;;;;;;;;;;;13.93;50.85;95447.63;5097217;28;1131;-49
2023/01/05 12:12:59;;;;;;;;;;;;;;;13.91;51.13;95444.28;5096975;28;1283;-49
2023/01/05 12:15:34;;;;;;;;;;;;;;;14.11;50.38;95441.97;5097275;28;1018;-49
2023/01/05 12:18:03;;;;;;;;;;;;;;;14.09;50.44;95433.25;5079074;28;1020;-48
2023/01/05 12:20:41;;;;;;;;;;;;;;;14.20;50.43;95437.41;5096812;28;1914;-49
2023/01/05 12:23:07;;;;;;;;;;;;;;;13.95;50.08;95434.03;5096710;28;1451;-49
2023/01/05 12:26:03;;;;;;;;;;;;;;;13.67;50.91;95427.22;5097089;28;1008;-49
2023/01/05 12:28:29;;;;;;;;;;;;;;;13.49;51.54;95423.94;5079366;28;1683;-49
2023/01/05 12:31:05;;;;;;;;;;;;;;;13.47;51.47;95424.13;5096832;28;1143;-49
2023/01/05 12:33:43;;;;;;;;;;;;;;;13.52;52.14;95417.38;5078979;28;1040;-49
2023/01/05 12:36:39;;;;;;;;;;;;;;;13.70;51.53;95425.19;5096826;28;1041;-48
2023/01/05 12:39:05;;;;;;;;;;;;;;;13.64;51.67;95422.22;5079437;28;1291;-49
2023/01/05 12:41:41;;;;;;;;;;;;;;;13.76;51.06;95413.78;5096370;28;1973;-48
2023/01/05 12:44:10;;;;;;;;;;;;;;;13.83;51.08;95420.13;5096825;28;1239;-49
2023/01/05 12:46:49;;;;;;;;;;;;;;;13.63;51.78;95411.63;5096582;28;989;-49
2023/01/05 12:49:17;;;;;;;;;;;;;;;13.58;51.27;95417.53;5096464;28;1941;-49
2023/01/05 12:51:43;;;;;;;;;;;;;;;13.66;51.25;95405.94;5096344;28;1040;-49
2023/01/05 12:54:12;;;;;;;;;;;;;;;13.46;50.42;95390.19;5096327;28;1044;-49
2023/01/05 12:56:49;;;;;;;;;;;;;;;13.32;50.92;95385.56;5095848;28;1004;-49
2023/01/05 12:59:17;;;;;;;;;;;;;;;13.31;51.70;95375.81;5096381;28;991;-49
2023/01/05 13:01:51;;;;;;;;;;;;;;;13.38;50.99;95365.22;5096196;28;1910;-49
2023/01/05 13:04:32;;;;;;;;;;;;;;;13.45;50.61;95366.22;5096225;28;1041;-48
2023/01/05 13:06:59;;;;;;;;;;;;;;;13.34;50.55;95358.53;5096349;28;1060;-49
2023/01/05 13:09:28;;;;;;;;;;;;;;;13.34;50.24;95364.72;5095912;28;1021;-49
2023/01/05 13:11:59;;;;;;;;;;;;;;;13.34;50.86;95362.06;5095778;28;1084;-48
2023/01/05 13:14:31;;;;;;;;;;;;;;;13.27;50.55;95369.09;5096077;28;1049;-49
2023/01/05 13:17:00;;;;;;;;;;;;;;;13.26;51.16;95364.72;5095907;28;1036;-49
2023/01/05 13:19:26;;;;;;;;;;;;;;;13.22;51.30;95374.13;5095808;28;1028;-49
2023/01/05 13:21:53;;;;;;;;;;;;;;;13.32;51.34;95366.75;5095888;28;1910;-48
2023/01/05 13:24:21;;;;;;;;;;;;;;;13.35;51.30;95368.25;5095480;28;1535;-49
2023/01/05 13:26:48;;;;;;;;;;;;;;;13.23;51.55;95379.31;5095835;28;987;-48
2023/01/05 13:29:23;;;;;;;;;;;;;;;13.20;51.88;95373.47;5095690;28;1016;-49
2023/01/05 13:32:07;;;;;;;;;;;;;;;13.04;52.47;95377.03;5095622;28;1052;-49
2023/01/05 13:34:35;;;;;;;;;;;;;;;12.92;52.91;95370.31;5095503;28;1095;-49
2023/01/05 13:37:20;;;;;;;;;;;;;;;12.82;53.20;95370.50;5095739;28;1298;-48
2023/01/05 13:39:52;;;;;;;;;;;;;;;12.79;53.52;95376.22;5095474;28;1942;-49
2023/01/05 13:42:19;;;;;;;;;;;;;;;12.83;53.22;95381.09;5077536;28;894;-49